createdAt,value
2018-05-04T00:00:23.455Z,811.41
2018-05-04T00:01:23.463Z,811.43
2018-05-04T00:02:23.477Z,811.38
2018-05-04T00:03:23.484Z,811.39
2018-05-04T00:04:23.492Z,811.40
2018-05-04T00:05:23.505Z,811.35
2018-05-04T00:06:23.516Z,811.35
2018-05-04T00:07:23.524Z,811.36
2018-05-04T00:08:23.535Z,811.38
2018-05-04T00:09:23.545Z,811.41
2018-05-04T00:10:23.555Z,811.41
2018-05-04T00:11:23.564Z,811.38
2018-05-04T00:12:23.575Z,811.43
2018-05-04T00:13:23.586Z,811.44
2018-05-04T00:14:23.597Z,811.46
2018-05-04T00:15:23.607Z,811.41
2018-05-04T00:16:23.617Z,811.40
2018-05-04T00:17:23.627Z,811.42
2018-05-04T00:18:23.639Z,811.41
2018-05-04T00:19:23.648Z,811.39
2018-05-04T00:20:23.656Z,811.39
2018-05-04T00:21:23.667Z,811.42
2018-05-04T00:22:23.681Z,811.43
2018-05-04T00:23:23.687Z,811.40
2018-05-04T00:24:23.697Z,811.37
2018-05-04T00:25:23.708Z,811.37
2018-05-04T00:26:23.719Z,811.33
2018-05-04T00:27:23.729Z,811.39
2018-05-04T00:28:23.739Z,811.36
2018-05-04T00:29:23.750Z,811.39
2018-05-04T00:30:23.760Z,811.37
2018-05-04T00:31:23.769Z,811.35
2018-05-04T00:32:23.780Z,811.33
2018-05-04T00:33:23.796Z,811.31
2018-05-04T00:34:23.801Z,811.34
2018-05-04T00:35:23.809Z,811.33
2018-05-04T00:36:23.818Z,811.35
2018-05-04T00:37:23.830Z,811.32
2018-05-04T00:38:23.840Z,811.32
2018-05-04T00:39:23.852Z,811.29
2018-05-04T00:40:23.858Z,811.27
2018-05-04T00:41:23.872Z,811.29
2018-05-04T00:42:23.880Z,811.29
2018-05-04T00:43:23.887Z,811.28
2018-05-04T00:44:23.899Z,811.26
2018-05-04T00:45:23.909Z,811.22
2018-05-04T00:46:23.922Z,811.23
2018-05-04T00:47:23.927Z,811.18
2018-05-04T00:48:23.937Z,811.18
2018-05-04T00:49:23.955Z,811.18
2018-05-04T00:50:23.961Z,811.17
2018-05-04T00:51:23.971Z,811.15
2018-05-04T00:52:23.979Z,811.16
2018-05-04T00:53:23.989Z,811.17
2018-05-04T00:54:23.999Z,811.19
2018-05-04T00:55:24.012Z,811.17
2018-05-04T00:56:24.019Z,811.17
2018-05-04T00:57:24.028Z,811.17
2018-05-04T00:58:24.037Z,811.19
2018-05-04T00:59:24.047Z,811.18
2018-05-04T01:00:24.056Z,811.16
2018-05-04T01:01:24.068Z,811.16
2018-05-04T01:02:24.088Z,811.20
2018-05-04T01:03:24.086Z,811.19
2018-05-04T01:04:24.097Z,811.16
2018-05-04T01:05:24.106Z,811.18
2018-05-04T01:06:24.119Z,811.13
2018-05-04T01:07:24.126Z,811.18
2018-05-04T01:08:24.137Z,811.15
2018-05-04T01:09:24.148Z,811.17
2018-05-04T01:10:24.157Z,811.16
2018-05-04T01:11:24.166Z,811.16
2018-05-04T01:12:24.176Z,811.13
2018-05-04T01:13:24.185Z,811.11
2018-05-04T01:14:24.194Z,811.12
2018-05-04T01:15:24.206Z,811.06
2018-05-04T01:16:24.216Z,811.09
2018-05-04T01:17:24.227Z,811.06
2018-05-04T01:18:24.236Z,811.01
2018-05-04T01:19:24.248Z,811.03
2018-05-04T01:20:24.257Z,811.01
2018-05-04T01:21:24.266Z,811.00
2018-05-04T01:22:24.284Z,810.97
2018-05-04T01:23:24.284Z,810.97
2018-05-04T01:24:24.296Z,811.02
2018-05-04T01:25:24.304Z,810.96
2018-05-04T01:26:24.315Z,810.97
2018-05-04T01:27:24.325Z,810.95
2018-05-04T01:28:24.335Z,810.96
2018-05-04T01:29:24.345Z,810.99
2018-05-04T01:30:24.356Z,810.99
2018-05-04T01:31:24.366Z,811.00
2018-05-04T01:32:24.375Z,811.03
2018-05-04T01:33:24.386Z,811.06
2018-05-04T01:34:24.395Z,811.03
2018-05-04T01:35:24.405Z,811.04
2018-05-04T01:36:24.417Z,811.02
2018-05-04T01:37:24.428Z,811.01
2018-05-04T01:38:24.437Z,811.03
2018-05-04T01:39:24.454Z,811.03
2018-05-04T01:40:24.457Z,811.03
2018-05-04T01:41:24.466Z,811.03
2018-05-04T01:42:24.487Z,811.03
2018-05-04T01:43:24.489Z,811.01
2018-05-04T01:44:24.497Z,811.00
2018-05-04T01:45:24.507Z,811.00
2018-05-04T01:46:24.520Z,811.00
2018-05-04T01:47:24.529Z,811.02
2018-05-04T01:48:24.536Z,811.04
2018-05-04T01:49:24.548Z,811.04
2018-05-04T01:50:24.561Z,811.02
2018-05-04T01:51:24.568Z,811.05
2018-05-04T01:52:24.577Z,811.07
2018-05-04T01:53:24.587Z,811.06
2018-05-04T01:54:24.597Z,811.06
2018-05-04T01:55:24.608Z,811.07
2018-05-04T01:56:24.618Z,811.04
2018-05-04T01:57:24.627Z,810.98
2018-05-04T01:58:24.638Z,811.02
2018-05-04T01:59:24.647Z,811.05
2018-05-04T02:00:24.661Z,811.02
2018-05-04T02:01:24.669Z,811.03
2018-05-04T02:02:24.680Z,811.03
2018-05-04T02:03:24.689Z,811.04
2018-05-04T02:04:24.706Z,811.07
2018-05-04T02:05:24.709Z,811.04
2018-05-04T02:06:24.722Z,811.03
2018-05-04T02:07:24.726Z,811.01
2018-05-04T02:08:24.738Z,811.02
2018-05-04T02:09:24.747Z,811.00
2018-05-04T02:10:24.760Z,811.03
2018-05-04T02:11:24.769Z,811.03
2018-05-04T02:12:24.778Z,811.03
2018-05-04T02:13:24.797Z,810.97
2018-05-04T02:14:24.797Z,810.97
2018-05-04T02:15:24.813Z,811.02
2018-05-04T02:16:24.819Z,810.96
2018-05-04T02:17:24.827Z,811.00
2018-05-04T02:18:24.838Z,810.95
2018-05-04T02:19:24.847Z,810.98
2018-05-04T02:20:24.858Z,810.95
2018-05-04T02:21:24.870Z,810.95
2018-05-04T02:22:24.878Z,810.95
2018-05-04T02:23:24.891Z,810.98
2018-05-04T02:24:24.897Z,810.96
2018-05-04T02:25:24.912Z,810.98
2018-05-04T02:26:24.918Z,810.97
2018-05-04T02:27:24.927Z,810.98
2018-05-04T02:28:24.938Z,810.97
2018-05-04T02:29:24.946Z,810.97
2018-05-04T02:30:24.958Z,810.98
2018-05-04T02:31:24.973Z,810.98
2018-05-04T02:32:24.976Z,810.97
2018-05-04T02:33:24.989Z,810.97
2018-05-04T02:34:24.998Z,810.98
2018-05-04T02:35:25.006Z,810.98
2018-05-04T02:36:25.018Z,810.97
2018-05-04T02:37:25.029Z,810.97
2018-05-04T02:38:25.037Z,810.97
2018-05-04T02:39:25.056Z,810.98
2018-05-04T02:40:25.058Z,810.94
2018-05-04T02:41:25.071Z,810.97
2018-05-04T02:42:25.078Z,811.00
2018-05-04T02:43:25.087Z,810.94
2018-05-04T02:44:25.097Z,810.92
2018-05-04T02:45:25.107Z,810.91
2018-05-04T02:46:25.116Z,810.94
2018-05-04T02:47:25.127Z,810.88
2018-05-04T02:48:25.140Z,810.93
2018-05-04T02:49:25.177Z,810.86
2018-05-04T02:50:25.156Z,810.91
2018-05-04T02:51:25.167Z,810.91
2018-05-04T02:52:25.177Z,810.87
2018-05-04T02:53:25.187Z,810.87
2018-05-04T02:54:25.198Z,810.88
2018-05-04T02:55:25.354Z,810.86
2018-05-04T02:56:25.216Z,810.83
2018-05-04T02:57:25.227Z,810.81
2018-05-04T02:58:25.239Z,810.74
2018-05-04T02:59:25.245Z,810.75
2018-05-04T03:00:25.257Z,810.74
2018-05-04T03:01:25.269Z,810.71
2018-05-04T03:02:25.277Z,810.70
2018-05-04T03:03:25.292Z,810.70
2018-05-04T03:04:25.325Z,810.66
2018-05-04T03:05:25.306Z,810.69
2018-05-04T03:06:25.316Z,810.73
2018-05-04T03:07:25.328Z,810.75
2018-05-04T03:08:25.337Z,810.68
2018-05-04T03:09:25.345Z,810.70
2018-05-04T03:10:25.359Z,810.67
2018-05-04T03:11:25.365Z,810.69
2018-05-04T03:12:25.376Z,810.64
2018-05-04T03:13:25.391Z,810.67
2018-05-04T03:14:25.399Z,810.71
2018-05-04T03:15:25.406Z,810.70
2018-05-04T03:16:25.417Z,810.71
2018-05-04T03:17:25.426Z,810.61
2018-05-04T03:18:25.435Z,810.62
2018-05-04T03:19:25.484Z,810.65
2018-05-04T03:20:25.455Z,810.65
2018-05-04T03:21:25.467Z,810.60
2018-05-04T03:22:25.477Z,810.59
2018-05-04T03:23:25.488Z,810.62
2018-05-04T03:24:25.508Z,810.58
2018-05-04T03:25:25.504Z,810.62
2018-05-04T03:26:25.514Z,810.61
2018-05-04T03:27:25.525Z,810.63
2018-05-04T03:28:25.533Z,810.62
2018-05-04T03:29:25.543Z,810.68
2018-05-04T03:30:25.555Z,810.65
2018-05-04T03:31:25.564Z,810.64
2018-05-04T03:32:25.578Z,810.66
2018-05-04T03:33:25.584Z,810.64
2018-05-04T03:34:25.593Z,810.58
2018-05-04T03:35:25.601Z,810.61
2018-05-04T03:36:25.613Z,810.63
2018-05-04T03:37:25.620Z,810.66
2018-05-04T03:38:25.633Z,810.63
2018-05-04T03:39:25.642Z,810.64
2018-05-04T03:40:25.653Z,810.62
2018-05-04T03:41:25.660Z,810.69
2018-05-04T03:42:25.670Z,810.66
2018-05-04T03:43:25.679Z,810.61
2018-05-04T03:44:25.691Z,810.59
2018-05-04T03:45:25.698Z,810.61
2018-05-04T03:46:25.709Z,810.60
2018-05-04T03:47:25.719Z,810.61
2018-05-04T03:48:25.728Z,810.54
2018-05-04T03:49:25.738Z,810.57
2018-05-04T03:50:25.750Z,810.58
2018-05-04T03:51:25.758Z,810.56
2018-05-04T03:52:25.767Z,810.58
2018-05-04T03:53:25.778Z,810.60
2018-05-04T03:54:25.792Z,810.58
2018-05-04T03:55:25.797Z,810.57
2018-05-04T03:56:25.807Z,810.58
2018-05-04T03:57:25.818Z,810.57
2018-05-04T03:58:25.828Z,810.52
2018-05-04T03:59:25.834Z,810.52
2018-05-04T04:00:25.881Z,810.54
2018-05-04T04:01:25.854Z,810.54
2018-05-04T04:02:25.885Z,810.55
2018-05-04T04:03:25.874Z,810.59
2018-05-04T04:04:25.884Z,810.60
2018-05-04T04:05:25.895Z,810.65
2018-05-04T04:06:25.905Z,810.62
2018-05-04T04:07:25.913Z,810.60
2018-05-04T04:08:25.922Z,810.62
2018-05-04T04:09:25.934Z,810.57
2018-05-04T04:10:25.942Z,810.59
2018-05-04T04:11:25.958Z,810.53
2018-05-04T04:12:25.964Z,810.55
2018-05-04T04:13:25.973Z,810.57
2018-05-04T04:14:25.981Z,810.58
2018-05-04T04:15:25.991Z,810.63
2018-05-04T04:16:26.002Z,810.58
2018-05-04T04:17:26.012Z,810.64
2018-05-04T04:18:26.019Z,810.57
2018-05-04T04:19:26.032Z,810.64
2018-05-04T04:20:26.039Z,810.61
2018-05-04T04:21:26.050Z,810.56
2018-05-04T04:22:26.057Z,810.56
2018-05-04T04:23:26.067Z,810.57
2018-05-04T04:24:26.078Z,810.56
2018-05-04T04:25:26.087Z,810.54
2018-05-04T04:26:26.098Z,810.58
2018-05-04T04:27:26.106Z,810.52
2018-05-04T04:28:26.117Z,810.50
2018-05-04T04:29:26.125Z,810.54
2018-05-04T04:30:26.135Z,810.61
2018-05-04T04:31:26.145Z,810.62
2018-05-04T04:32:26.155Z,810.62
2018-05-04T04:33:26.164Z,810.61
2018-05-04T04:34:26.173Z,810.59
2018-05-04T04:35:26.185Z,810.63
2018-05-04T04:36:26.199Z,810.61
2018-05-04T04:37:26.203Z,810.61
2018-05-04T04:38:26.213Z,810.64
2018-05-04T04:39:26.221Z,810.63
2018-05-04T04:40:26.233Z,810.63
2018-05-04T04:41:26.243Z,810.62
2018-05-04T04:42:26.251Z,810.61
2018-05-04T04:43:26.260Z,810.64
2018-05-04T04:44:26.273Z,810.60
2018-05-04T04:45:26.282Z,810.58
2018-05-04T04:46:26.292Z,810.54
2018-05-04T04:47:26.306Z,810.55
2018-05-04T04:48:26.312Z,810.60
2018-05-04T04:49:26.320Z,810.67
2018-05-04T04:50:26.330Z,810.62
2018-05-04T04:51:26.338Z,810.61
2018-05-04T04:52:26.350Z,810.61
2018-05-04T04:53:26.359Z,810.66
2018-05-04T04:54:26.368Z,810.69
2018-05-04T04:55:26.380Z,810.72
2018-05-04T04:56:26.389Z,810.73
2018-05-04T04:57:26.401Z,810.74
2018-05-04T04:58:26.408Z,810.78
2018-05-04T04:59:26.417Z,810.76
2018-05-04T05:00:26.428Z,810.78
2018-05-04T05:01:26.438Z,810.80
2018-05-04T05:02:26.447Z,810.86
2018-05-04T05:03:26.457Z,810.84
2018-05-04T05:04:26.468Z,810.84
2018-05-04T05:05:26.476Z,810.86
2018-05-04T05:06:26.485Z,810.87
2018-05-04T05:07:26.495Z,810.90
2018-05-04T05:08:26.504Z,810.91
2018-05-04T05:09:26.513Z,810.95
2018-05-04T05:10:26.529Z,810.90
2018-05-04T05:11:26.535Z,810.89
2018-05-04T05:12:26.544Z,810.85
2018-05-04T05:13:26.616Z,810.93
2018-05-04T05:14:26.564Z,810.90
2018-05-04T05:15:26.573Z,810.88
2018-05-04T05:16:26.585Z,810.88
2018-05-04T05:17:26.594Z,810.85
2018-05-04T05:18:26.606Z,810.87
2018-05-04T05:19:26.614Z,810.85
2018-05-04T05:20:26.625Z,810.90
2018-05-04T05:21:26.634Z,810.88
2018-05-04T05:22:26.648Z,810.88
2018-05-04T05:23:26.656Z,810.89
2018-05-04T05:24:26.664Z,810.92
2018-05-04T05:25:26.674Z,810.94
2018-05-04T05:26:26.686Z,810.92
2018-05-04T05:27:26.695Z,810.97
2018-05-04T05:28:26.704Z,810.95
2018-05-04T05:29:26.715Z,810.92
2018-05-04T05:30:26.734Z,810.99
2018-05-04T05:31:26.735Z,810.95
2018-05-04T05:32:26.745Z,810.94
2018-05-04T05:33:26.759Z,811.04
2018-05-04T05:34:26.772Z,811.02
2018-05-04T05:35:26.775Z,811.00
2018-05-04T05:36:26.786Z,811.06
2018-05-04T05:37:26.796Z,811.08
2018-05-04T05:38:26.806Z,811.04
2018-05-04T05:39:26.816Z,811.11
2018-05-04T05:40:26.831Z,811.10
2018-05-04T05:41:26.841Z,811.13
2018-05-04T05:42:26.869Z,811.14
2018-05-04T05:43:26.861Z,811.16
2018-05-04T05:44:26.866Z,811.18
2018-05-04T05:45:26.879Z,811.20
2018-05-04T05:46:26.892Z,811.21
2018-05-04T05:47:26.897Z,811.14
2018-05-04T05:48:26.909Z,811.15
2018-05-04T05:49:26.920Z,811.18
2018-05-04T05:50:26.930Z,811.13
2018-05-04T05:51:26.937Z,811.14
2018-05-04T05:52:26.952Z,811.10
2018-05-04T05:53:26.959Z,811.14
2018-05-04T05:54:26.970Z,811.11
2018-05-04T05:55:26.980Z,811.02
2018-05-04T05:56:26.990Z,811.03
2018-05-04T05:57:27.001Z,811.08
2018-05-04T05:58:27.012Z,811.07
2018-05-04T05:59:27.020Z,811.00
2018-05-04T06:00:27.031Z,811.01
2018-05-04T06:01:27.043Z,811.05
2018-05-04T06:02:27.053Z,811.09
2018-05-04T06:03:27.062Z,811.02
2018-05-04T06:04:27.073Z,811.01
2018-05-04T06:05:27.086Z,811.05
2018-05-04T06:06:27.096Z,811.04
2018-05-04T06:07:27.105Z,811.07
2018-05-04T06:08:27.114Z,811.07
2018-05-04T06:09:27.377Z,811.08
2018-05-04T06:10:27.142Z,811.13
2018-05-04T06:11:27.147Z,811.06
2018-05-04T06:12:27.158Z,811.07
2018-05-04T06:13:27.171Z,811.05
2018-05-04T06:14:27.181Z,811.08
2018-05-04T06:15:27.190Z,811.10
2018-05-04T06:16:27.201Z,811.12
2018-05-04T06:17:27.214Z,811.15
2018-05-04T06:18:27.224Z,811.11
2018-05-04T06:19:27.233Z,811.09
2018-05-04T06:20:27.247Z,811.12
2018-05-04T06:21:27.262Z,811.08
2018-05-04T06:22:27.268Z,811.11
2018-05-04T06:23:27.278Z,811.11
2018-05-04T06:24:27.287Z,811.06
2018-05-04T06:25:27.315Z,811.06
2018-05-04T06:26:27.312Z,811.04
2018-05-04T06:27:27.323Z,811.03
2018-05-04T06:28:27.331Z,811.07
2018-05-04T06:29:27.344Z,811.07
2018-05-04T06:30:27.356Z,811.08
2018-05-04T06:31:27.363Z,811.11
2018-05-04T06:32:27.376Z,811.11
2018-05-04T06:33:27.387Z,811.13
2018-05-04T06:34:27.399Z,811.12
2018-05-04T06:35:27.411Z,811.17
2018-05-04T06:36:27.421Z,811.19
2018-05-04T06:37:27.433Z,811.16
2018-05-04T06:38:27.445Z,811.17
2018-05-04T06:39:27.458Z,811.14
2018-05-04T06:40:27.463Z,811.19
2018-05-04T06:41:27.476Z,811.17
2018-05-04T06:42:27.487Z,811.18
2018-05-04T06:43:27.502Z,811.18
2018-05-04T06:44:27.511Z,811.16
2018-05-04T06:45:27.522Z,811.20
2018-05-04T06:46:27.533Z,811.20
2018-05-04T06:47:27.544Z,811.23
2018-05-04T06:48:27.555Z,811.21
2018-05-04T06:49:27.566Z,811.21
2018-05-04T06:50:27.577Z,811.17
2018-05-04T06:51:27.590Z,811.20
2018-05-04T06:52:27.604Z,811.22
2018-05-04T06:53:27.613Z,811.22
2018-05-04T06:54:27.627Z,811.21
2018-05-04T06:55:27.639Z,811.19
2018-05-04T06:56:27.646Z,811.18
2018-05-04T06:57:27.657Z,811.24
2018-05-04T06:58:27.669Z,811.23
2018-05-04T06:59:27.716Z,811.25
2018-05-04T07:00:27.695Z,811.28
2018-05-04T07:01:27.708Z,811.22
2018-05-04T07:02:27.713Z,811.21
2018-05-04T07:03:27.728Z,811.21
2018-05-04T07:04:27.737Z,811.28
2018-05-04T07:05:27.751Z,811.31
2018-05-04T07:06:27.761Z,811.35
2018-05-04T07:07:27.771Z,811.34
2018-05-04T07:08:27.782Z,811.28
2018-05-04T07:09:27.796Z,811.33
2018-05-04T07:10:27.832Z,811.32
2018-05-04T07:11:27.815Z,811.32
2018-05-04T07:12:27.828Z,811.33
2018-05-04T07:13:27.841Z,811.34
2018-05-04T07:14:27.850Z,811.35
2018-05-04T07:15:27.864Z,811.35
2018-05-04T07:16:27.879Z,811.37
2018-05-04T07:17:27.886Z,811.37
2018-05-04T07:18:27.896Z,811.42
2018-05-04T07:19:27.907Z,811.37
2018-05-04T07:20:27.923Z,811.40
2018-05-04T07:21:27.931Z,811.44
2018-05-04T07:22:27.943Z,811.44
2018-05-04T07:23:27.958Z,811.45
2018-05-04T07:24:27.965Z,811.44
2018-05-04T07:25:27.977Z,811.42
2018-05-04T07:26:27.989Z,811.41
2018-05-04T07:27:28.000Z,811.39
2018-05-04T07:28:28.015Z,811.40
2018-05-04T07:29:28.023Z,811.40
2018-05-04T07:30:28.036Z,811.42
2018-05-04T07:31:28.046Z,811.44
2018-05-04T07:32:28.058Z,811.42
2018-05-04T07:33:28.071Z,811.38
2018-05-04T07:34:28.085Z,811.42
2018-05-04T07:35:28.097Z,811.43
2018-05-04T07:36:28.104Z,811.42
2018-05-04T07:37:28.116Z,811.40
2018-05-04T07:38:28.128Z,811.42
2018-05-04T07:39:28.139Z,811.44
2018-05-04T07:40:28.150Z,811.44
2018-05-04T07:41:28.163Z,811.46
2018-05-04T07:42:28.173Z,811.42
2018-05-04T07:43:28.185Z,811.42
2018-05-04T07:44:28.196Z,811.41
2018-05-04T07:45:28.208Z,811.43
2018-05-04T07:46:28.220Z,811.39
2018-05-04T07:47:28.230Z,811.40
2018-05-04T07:48:28.242Z,811.42
2018-05-04T07:49:28.254Z,811.47
2018-05-04T07:50:28.267Z,811.47
2018-05-04T07:51:28.277Z,811.48
2018-05-04T07:52:28.291Z,811.43
2018-05-04T07:53:28.300Z,811.37
2018-05-04T07:54:28.314Z,811.40
2018-05-04T07:55:28.330Z,811.37
2018-05-04T07:56:28.339Z,811.40
2018-05-04T07:57:28.349Z,811.41
2018-05-04T07:58:28.364Z,811.37
2018-05-04T07:59:28.370Z,811.36
2018-05-04T08:00:28.384Z,811.37
2018-05-04T08:01:28.394Z,811.38
2018-05-04T08:02:28.407Z,811.41
2018-05-04T08:03:28.417Z,811.40
2018-05-04T08:04:28.430Z,811.38
2018-05-04T08:05:28.443Z,811.42
2018-05-04T08:06:28.453Z,811.42
2018-05-04T08:07:28.465Z,811.43
2018-05-04T08:08:28.562Z,811.39
2018-05-04T08:09:28.498Z,811.41
2018-05-04T08:10:28.501Z,811.41
2018-05-04T08:11:28.512Z,811.42
2018-05-04T08:12:28.525Z,811.42
2018-05-04T08:13:28.537Z,811.44
2018-05-04T08:14:28.549Z,811.44
2018-05-04T08:15:28.559Z,811.43
2018-05-04T08:16:28.573Z,811.47
2018-05-04T08:17:28.585Z,811.49
2018-05-04T08:18:28.599Z,811.49
2018-05-04T08:19:28.607Z,811.53
2018-05-04T08:20:28.619Z,811.56
2018-05-04T08:21:28.633Z,811.58
2018-05-04T08:22:28.643Z,811.55
2018-05-04T08:23:28.657Z,811.52
2018-05-04T08:24:28.671Z,811.52
2018-05-04T08:25:28.680Z,811.50
2018-05-04T08:26:28.692Z,811.48
2018-05-04T08:27:28.836Z,811.53
2018-05-04T08:28:28.716Z,811.56
2018-05-04T08:29:28.729Z,811.57
2018-05-04T08:30:28.740Z,811.56
2018-05-04T08:31:28.752Z,811.58
2018-05-04T08:32:28.765Z,811.60
2018-05-04T08:33:28.778Z,811.59
2018-05-04T08:34:28.790Z,811.59
2018-05-04T08:35:28.882Z,811.60
2018-05-04T08:36:28.815Z,811.59
2018-05-04T08:37:28.828Z,811.58
2018-05-04T08:38:28.839Z,811.55
2018-05-04T08:39:28.851Z,811.58
2018-05-04T08:40:28.869Z,811.58
2018-05-04T08:41:28.878Z,811.55
2018-05-04T08:42:28.891Z,811.60
2018-05-04T08:43:28.902Z,811.56
2018-05-04T08:44:28.916Z,811.59
2018-05-04T08:45:28.928Z,811.56
2018-05-04T08:46:28.943Z,811.62
2018-05-04T08:47:28.953Z,811.61
2018-05-04T08:48:28.968Z,811.58
2018-05-04T08:49:28.979Z,811.60
2018-05-04T08:50:28.995Z,811.58
2018-05-04T08:51:29.006Z,811.60
2018-05-04T08:52:29.030Z,811.60
2018-05-04T08:53:29.033Z,811.62
2018-05-04T08:54:29.179Z,811.65
2018-05-04T08:55:29.058Z,811.67
2018-05-04T08:56:29.073Z,811.66
2018-05-04T08:57:29.123Z,811.67
2018-05-04T08:58:29.100Z,811.71
2018-05-04T08:59:29.146Z,811.73
2018-05-04T09:00:29.126Z,811.67
2018-05-04T09:01:29.140Z,811.70
2018-05-04T09:02:29.155Z,811.67
2018-05-04T09:03:29.166Z,811.72
2018-05-04T09:04:29.181Z,811.69
2018-05-04T09:05:29.333Z,811.73
2018-05-04T09:06:29.209Z,811.72
2018-05-04T09:07:29.229Z,811.74
2018-05-04T09:08:29.236Z,811.70
2018-05-04T09:09:29.258Z,811.74
2018-05-04T09:10:29.262Z,811.72
2018-05-04T09:11:29.279Z,811.70
2018-05-04T09:12:29.295Z,811.80
2018-05-04T09:13:29.304Z,811.75
2018-05-04T09:14:29.320Z,811.72
2018-05-04T09:15:29.332Z,811.73
2018-05-04T09:16:29.346Z,811.75
2018-05-04T09:17:29.362Z,811.71
2018-05-04T09:18:29.376Z,811.72
2018-05-04T09:19:29.388Z,811.76
2018-05-04T09:20:29.401Z,811.77
2018-05-04T09:21:29.415Z,811.80
2018-05-04T09:22:29.431Z,811.77
2018-05-04T09:23:29.443Z,811.80
2018-05-04T09:24:29.458Z,811.77
2018-05-04T09:25:29.476Z,811.79
2018-05-04T09:26:29.496Z,811.81
2018-05-04T09:27:29.500Z,811.87
2018-05-04T09:28:29.516Z,811.81
2018-05-04T09:29:29.527Z,811.83
2018-05-04T09:30:29.545Z,811.86
2018-05-04T09:31:29.556Z,811.84
2018-05-04T09:32:29.575Z,811.82
2018-05-04T09:33:29.586Z,811.84
2018-05-04T09:34:29.605Z,811.88
2018-05-04T09:35:29.613Z,811.95
2018-05-04T09:36:29.628Z,811.94
2018-05-04T09:37:29.643Z,811.93
2018-05-04T09:38:29.658Z,811.91
2018-05-04T09:39:29.671Z,811.94
2018-05-04T09:40:29.685Z,811.97
2018-05-04T09:41:29.700Z,811.93
2018-05-04T09:42:29.713Z,811.92
2018-05-04T09:43:29.790Z,811.92
2018-05-04T09:44:29.744Z,811.92
2018-05-04T09:45:29.759Z,811.91
2018-05-04T09:46:29.773Z,811.94
2018-05-04T09:47:29.797Z,811.98
2018-05-04T09:48:29.803Z,811.98
2018-05-04T09:49:29.818Z,812.05
2018-05-04T09:50:29.835Z,812.04
2018-05-04T09:51:29.931Z,812.03
2018-05-04T09:52:29.863Z,812.02
2018-05-04T09:53:29.877Z,812.05
2018-05-04T09:54:29.892Z,812.06
2018-05-04T09:55:29.907Z,812.01
2018-05-04T09:56:29.921Z,812.14
2018-05-04T09:57:29.939Z,812.09
2018-05-04T09:58:29.951Z,812.07
2018-05-04T09:59:29.971Z,812.07
2018-05-04T10:00:29.981Z,812.07
2018-05-04T10:01:29.998Z,812.07
2018-05-04T10:02:30.015Z,812.08
2018-05-04T10:03:30.076Z,812.09
2018-05-04T10:04:30.042Z,812.08
2018-05-04T10:05:30.055Z,812.12
2018-05-04T10:06:30.072Z,812.07
2018-05-04T10:07:30.085Z,812.10
2018-05-04T10:08:30.098Z,812.07
2018-05-04T10:09:30.115Z,812.07
2018-05-04T10:10:30.131Z,812.08
2018-05-04T10:11:30.144Z,812.08
2018-05-04T10:12:30.161Z,812.13
2018-05-04T10:13:30.178Z,812.15
2018-05-04T10:14:30.191Z,812.12
2018-05-04T10:15:30.205Z,812.08
2018-05-04T10:16:30.220Z,812.09
2018-05-04T10:17:30.235Z,812.13
2018-05-04T10:18:30.250Z,812.14
2018-05-04T10:19:30.266Z,812.10
2018-05-04T10:20:30.281Z,812.10
2018-05-04T10:21:30.295Z,812.12
2018-05-04T10:22:30.312Z,812.08
2018-05-04T10:23:30.327Z,812.07
2018-05-04T10:24:30.340Z,812.12
2018-05-04T10:25:30.358Z,812.08
2018-05-04T10:26:30.372Z,812.11
2018-05-04T10:27:30.388Z,812.09
2018-05-04T10:28:30.403Z,812.10
2018-05-04T10:29:30.417Z,812.12
2018-05-04T10:30:30.435Z,812.11
2018-05-04T10:31:30.497Z,812.10
2018-05-04T10:32:30.464Z,812.13
2018-05-04T10:33:30.480Z,812.13
2018-05-04T10:34:30.497Z,812.17
2018-05-04T10:35:30.511Z,812.16
2018-05-04T10:36:30.531Z,812.15
2018-05-04T10:37:30.538Z,812.18
2018-05-04T10:38:30.599Z,812.18
2018-05-04T10:39:30.570Z,812.21
2018-05-04T10:40:30.586Z,812.21
2018-05-04T10:41:30.603Z,812.25
2018-05-04T10:42:30.617Z,812.27
2018-05-04T10:43:30.632Z,812.24
2018-05-04T10:44:30.649Z,812.27
2018-05-04T10:45:30.664Z,812.28
2018-05-04T10:46:30.681Z,812.29
2018-05-04T10:47:30.697Z,812.27
2018-05-04T10:48:30.715Z,812.32
2018-05-04T10:49:30.729Z,812.26
2018-05-04T10:50:30.744Z,812.28
2018-05-04T10:51:30.760Z,812.28
2018-05-04T10:52:30.776Z,812.27
2018-05-04T10:53:30.792Z,812.24
2018-05-04T10:54:30.807Z,812.25
2018-05-04T10:55:30.829Z,812.28
2018-05-04T10:56:30.840Z,812.24
2018-05-04T10:57:30.859Z,812.20
2018-05-04T10:58:30.870Z,812.25
2018-05-04T10:59:30.886Z,812.26
2018-05-04T11:00:30.904Z,812.25
2018-05-04T11:01:30.918Z,812.24
2018-05-04T11:02:30.935Z,812.26
2018-05-04T11:03:30.949Z,812.27
2018-05-04T11:04:30.968Z,812.31
2018-05-04T11:05:30.982Z,812.28
2018-05-04T11:06:30.999Z,812.28
2018-05-04T11:07:31.013Z,812.32
2018-05-04T11:08:31.029Z,812.26
2018-05-04T11:09:31.048Z,812.29
2018-05-04T11:10:31.061Z,812.29
2018-05-04T11:11:31.077Z,812.34
2018-05-04T11:12:31.095Z,812.32
2018-05-04T11:13:31.109Z,812.33
2018-05-04T11:14:31.124Z,812.32
2018-05-04T11:15:31.140Z,812.37
2018-05-04T11:16:31.156Z,812.37
2018-05-04T11:17:31.172Z,812.33
2018-05-04T11:18:31.187Z,812.33
2018-05-04T11:19:31.242Z,812.32
2018-05-04T11:20:31.219Z,812.37
2018-05-04T11:21:31.235Z,812.31
2018-05-04T11:22:31.251Z,812.33
2018-05-04T11:23:31.266Z,812.32
2018-05-04T11:24:31.283Z,812.29
2018-05-04T11:25:31.312Z,812.35
2018-05-04T11:26:31.313Z,812.37
2018-05-04T11:27:31.331Z,812.35
2018-05-04T11:28:31.348Z,812.35
2018-05-04T11:29:31.364Z,812.34
2018-05-04T11:30:31.386Z,812.35
2018-05-04T11:31:31.396Z,812.38
2018-05-04T11:32:31.411Z,812.41
2018-05-04T11:33:31.428Z,812.44
2018-05-04T11:34:31.444Z,812.44
2018-05-04T11:35:31.459Z,812.46
2018-05-04T11:36:31.476Z,812.47
2018-05-04T11:37:31.493Z,812.45
2018-05-04T11:38:31.509Z,812.47
2018-05-04T11:39:31.524Z,812.45
2018-05-04T11:40:31.540Z,812.44
2018-05-04T11:41:31.557Z,812.44
2018-05-04T11:42:31.573Z,812.48
2018-05-04T11:43:31.590Z,812.50
2018-05-04T11:44:31.606Z,812.41
2018-05-04T11:45:31.622Z,812.47
2018-05-04T11:46:31.639Z,812.42
2018-05-04T11:47:31.654Z,812.44
2018-05-04T11:48:31.672Z,812.44
2018-05-04T11:49:31.725Z,812.44
2018-05-04T11:50:31.706Z,812.46
2018-05-04T11:51:31.723Z,812.46
2018-05-04T11:52:31.741Z,812.46
2018-05-04T11:53:31.758Z,812.52
2018-05-04T11:54:31.773Z,812.54
2018-05-04T11:55:31.791Z,812.58
2018-05-04T11:56:31.808Z,812.62
2018-05-04T11:57:31.828Z,812.63
2018-05-04T11:58:31.847Z,812.64
2018-05-04T11:59:31.861Z,812.64
2018-05-04T12:00:31.879Z,812.62
2018-05-04T12:01:31.896Z,812.60
2018-05-04T12:02:32.002Z,812.59
2018-05-04T12:03:31.931Z,812.59
2018-05-04T12:04:31.949Z,812.68
2018-05-04T12:05:31.969Z,812.68
2018-05-04T12:06:31.984Z,812.68
2018-05-04T12:07:32.002Z,812.70
2018-05-04T12:08:32.019Z,812.69
2018-05-04T12:09:32.036Z,812.68
2018-05-04T12:10:32.054Z,812.67
2018-05-04T12:11:32.070Z,812.68
2018-05-04T12:12:32.088Z,812.70
2018-05-04T12:13:32.106Z,812.68
2018-05-04T12:14:32.124Z,812.70
2018-05-04T12:15:32.140Z,812.67
2018-05-04T12:16:32.245Z,812.70
2018-05-04T12:17:32.177Z,812.72
2018-05-04T12:18:32.192Z,812.75
2018-05-04T12:19:32.208Z,812.73
2018-05-04T12:20:32.227Z,812.76
2018-05-04T12:21:32.243Z,812.74
2018-05-04T12:22:32.262Z,812.78
2018-05-04T12:23:32.276Z,812.77
2018-05-04T12:24:32.294Z,812.79
2018-05-04T12:25:32.312Z,812.83
2018-05-04T12:26:32.330Z,812.89
2018-05-04T12:27:32.344Z,812.89
2018-05-04T12:28:32.370Z,812.89